sensor_id;sensor_type;location;lat;lon;timestamp;temperature;humidity
51839;DHT22;37886;53.174;6.368;2023-06-26T00:00:29;21.50;99.90
51839;DHT22;37886;53.174;6.368;2023-06-26T00:02:55;21.50;99.90
51839;DHT22;37886;53.174;6.368;2023-06-26T00:05:21;21.50;99.90
51839;DHT22;37886;53.174;6.368;2023-06-26T00:07:47;21.50;99.90
51839;DHT22;37886;53.174;6.368;2023-06-26T00:10:12;21.50;99.90
51839;DHT22;37886;53.174;6.368;2023-06-26T00:12:38;21.60;99.90
51839;DHT22;37886;53.174;6.368;2023-06-26T00:15:04;21.60;99.90
51839;DHT22;37886;53.174;6.368;2023-06-26T00:17:30;21.60;99.90
51839;DHT22;37886;53.174;6.368;2023-06-26T00:19:56;21.60;99.90
51839;DHT22;37886;53.174;6.368;2023-06-26T00:22:21;21.60;99.90
51839;DHT22;37886;53.174;6.368;2023-06-26T00:24:47;21.60;99.90
51839;DHT22;37886;53.174;6.368;2023-06-26T00:27:13;21.60;99.90
51839;DHT22;37886;53.174;6.368;2023-06-26T00:29:39;21.60;99.90
51839;DHT22;37886;53.174;6.368;2023-06-26T00:32:05;21.50;99.90
51839;DHT22;37886;53.174;6.368;2023-06-26T00:34:31;21.50;99.90
51839;DHT22;37886;53.174;6.368;2023-06-26T00:36:57;21.50;99.90
51839;DHT22;37886;53.174;6.368;2023-06-26T00:39:22;21.50;99.90
51839;DHT22;37886;53.174;6.368;2023-06-26T00:41:51;21.50;99.90
51839;DHT22;37886;53.174;6.368;2023-06-26T00:44:19;21.50;99.90
51839;DHT22;37886;53.174;6.368;2023-06-26T00:46:45;21.50;99.90
51839;DHT22;37886;53.174;6.368;2023-06-26T00:49:11;21.40;99.90
51839;DHT22;37886;53.174;6.368;2023-06-26T00:51:36;21.40;99.90
51839;DHT22;37886;53.174;6.368;2023-06-26T00:54:02;21.40;99.90
51839;DHT22;37886;53.174;6.368;2023-06-26T00:56:30;21.50;99.90
51839;DHT22;37886;53.174;6.368;2023-06-26T00:58:57;21.40;99.90
51839;DHT22;37886;53.174;6.368;2023-06-26T01:01:22;21.40;99.90
51839;DHT22;37886;53.174;6.368;2023-06-26T01:03:51;21.40;99.90
51839;DHT22;37886;53.174;6.368;2023-06-26T01:06:20;21.50;99.90
51839;DHT22;37886;53.174;6.368;2023-06-26T01:08:47;21.50;99.90
51839;DHT22;37886;53.174;6.368;2023-06-26T01:11:13;21.50;99.90
51839;DHT22;37886;53.174;6.368;2023-06-26T01:13:42;21.50;99.90
51839;DHT22;37886;53.174;6.368;2023-06-26T01:16:09;21.50;99.90
51839;DHT22;37886;53.174;6.368;2023-06-26T01:18:37;21.40;99.90
51839;DHT22;37886;53.174;6.368;2023-06-26T01:21:09;21.50;99.90
51839;DHT22;37886;53.174;6.368;2023-06-26T01:26:26;21.60;99.90
51839;DHT22;37886;53.174;6.368;2023-06-26T01:28:53;21.50;99.90
51839;DHT22;37886;53.174;6.368;2023-06-26T01:31:21;21.50;99.90
51839;DHT22;37886;53.174;6.368;2023-06-26T01:33:47;21.50;99.90
51839;DHT22;37886;53.174;6.368;2023-06-26T01:36:14;21.40;99.90
51839;DHT22;37886;53.174;6.368;2023-06-26T01:38:40;21.40;99.90
51839;DHT22;37886;53.174;6.368;2023-06-26T01:41:06;21.30;99.90
51839;DHT22;37886;53.174;6.368;2023-06-26T01:48:57;21.10;99.90
51839;DHT22;37886;53.174;6.368;2023-06-26T01:51:30;21.10;99.90
51839;DHT22;37886;53.174;6.368;2023-06-26T01:53:57;21.10;99.90
51839;DHT22;37886;53.174;6.368;2023-06-26T01:56:24;21.10;99.90
51839;DHT22;37886;53.174;6.368;2023-06-26T01:58:50;21.10;99.90
51839;DHT22;37886;53.174;6.368;2023-06-26T02:01:20;21.10;99.90
51839;DHT22;37886;53.174;6.368;2023-06-26T02:03:46;21.20;99.90
51839;DHT22;37886;53.174;6.368;2023-06-26T02:06:12;21.10;99.90
51839;DHT22;37886;53.174;6.368;2023-06-26T02:08:38;21.00;99.90
51839;DHT22;37886;53.174;6.368;2023-06-26T02:11:03;20.90;99.90
51839;DHT22;37886;53.174;6.368;2023-06-26T02:13:29;20.90;99.90
51839;DHT22;37886;53.174;6.368;2023-06-26T02:15:55;20.90;99.90
51839;DHT22;37886;53.174;6.368;2023-06-26T02:18:20;20.90;99.90
51839;DHT22;37886;53.174;6.368;2023-06-26T02:20:48;21.00;99.90
51839;DHT22;37886;53.174;6.368;2023-06-26T02:23:14;21.10;99.90
51839;DHT22;37886;53.174;6.368;2023-06-26T02:25:39;21.00;99.90
51839;DHT22;37886;53.174;6.368;2023-06-26T02:28:05;21.10;99.90
51839;DHT22;37886;53.174;6.368;2023-06-26T02:30:31;21.20;99.90
51839;DHT22;37886;53.174;6.368;2023-06-26T02:32:56;21.10;99.90
51839;DHT22;37886;53.174;6.368;2023-06-26T02:35:22;21.10;99.90
51839;DHT22;37886;53.174;6.368;2023-06-26T02:37:47;21.10;99.90
51839;DHT22;37886;53.174;6.368;2023-06-26T02:40:13;21.00;99.90
51839;DHT22;37886;53.174;6.368;2023-06-26T02:42:39;20.90;99.90
51839;DHT22;37886;53.174;6.368;2023-06-26T02:45:05;20.80;99.90
51839;DHT22;37886;53.174;6.368;2023-06-26T02:47:31;20.80;99.90
51839;DHT22;37886;53.174;6.368;2023-06-26T02:49:56;20.70;99.90
51839;DHT22;37886;53.174;6.368;2023-06-26T02:52:22;20.70;99.90
51839;DHT22;37886;53.174;6.368;2023-06-26T02:54:47;20.70;99.90
51839;DHT22;37886;53.174;6.368;2023-06-26T02:57:13;20.60;99.90
51839;DHT22;37886;53.174;6.368;2023-06-26T02:59:40;20.60;99.90
51839;DHT22;37886;53.174;6.368;2023-06-26T03:02:05;20.60;99.90
51839;DHT22;37886;53.174;6.368;2023-06-26T03:04:31;20.60;99.90
51839;DHT22;37886;53.174;6.368;2023-06-26T03:06:57;20.60;99.90
51839;DHT22;37886;53.174;6.368;2023-06-26T03:09:22;20.70;99.90
51839;DHT22;37886;53.174;6.368;2023-06-26T03:11:48;20.70;99.90
51839;DHT22;37886;53.174;6.368;2023-06-26T03:14:14;20.60;99.90
51839;DHT22;37886;53.174;6.368;2023-06-26T03:16:40;20.70;99.90
51839;DHT22;37886;53.174;6.368;2023-06-26T03:19:05;20.70;99.90
51839;DHT22;37886;53.174;6.368;2023-06-26T03:21:32;20.60;99.90
51839;DHT22;37886;53.174;6.368;2023-06-26T03:23:58;20.70;99.90
51839;DHT22;37886;53.174;6.368;2023-06-26T03:26:23;20.80;99.90
51839;DHT22;37886;53.174;6.368;2023-06-26T03:28:53;20.90;99.90
51839;DHT22;37886;53.174;6.368;2023-06-26T03:31:20;20.80;99.90
51839;DHT22;37886;53.174;6.368;2023-06-26T03:33:46;20.90;99.90
51839;DHT22;37886;53.174;6.368;2023-06-26T03:36:12;20.80;99.90
51839;DHT22;37886;53.174;6.368;2023-06-26T03:38:37;20.70;99.90
51839;DHT22;37886;53.174;6.368;2023-06-26T03:41:03;20.70;99.90
51839;DHT22;37886;53.174;6.368;2023-06-26T03:43:29;20.80;99.90
51839;DHT22;37886;53.174;6.368;2023-06-26T03:45:54;20.90;99.90
51839;DHT22;37886;53.174;6.368;2023-06-26T03:48:20;20.90;99.90
51839;DHT22;37886;53.174;6.368;2023-06-26T03:50:46;20.90;99.90
51839;DHT22;37886;53.174;6.368;2023-06-26T03:53:12;21.00;99.90
51839;DHT22;37886;53.174;6.368;2023-06-26T03:55:38;21.00;99.90
51839;DHT22;37886;53.174;6.368;2023-06-26T03:58:04;20.90;99.90
51839;DHT22;37886;53.174;6.368;2023-06-26T04:00:30;20.90;99.90
51839;DHT22;37886;53.174;6.368;2023-06-26T04:02:56;21.00;99.90
51839;DHT22;37886;53.174;6.368;2023-06-26T04:05:23;21.00;99.90
51839;DHT22;37886;53.174;6.368;2023-06-26T04:07:52;21.00;99.90
51839;DHT22;37886;53.174;6.368;2023-06-26T04:10:18;21.00;99.90
51839;DHT22;37886;53.174;6.368;2023-06-26T04:12:44;21.00;99.90
51839;DHT22;37886;53.174;6.368;2023-06-26T04:15:09;21.10;99.90
51839;DHT22;37886;53.174;6.368;2023-06-26T04:17:35;21.10;99.90
51839;DHT22;37886;53.174;6.368;2023-06-26T04:20:01;21.20;99.90
51839;DHT22;37886;53.174;6.368;2023-06-26T04:22:32;21.20;99.90
51839;DHT22;37886;53.174;6.368;2023-06-26T04:24:57;21.30;99.90
51839;DHT22;37886;53.174;6.368;2023-06-26T04:27:23;21.40;99.90
51839;DHT22;37886;53.174;6.368;2023-06-26T04:29:49;21.30;99.90
51839;DHT22;37886;53.174;6.368;2023-06-26T04:32:14;21.30;99.90
51839;DHT22;37886;53.174;6.368;2023-06-26T04:34:40;21.30;99.90
51839;DHT22;37886;53.174;6.368;2023-06-26T04:37:09;21.20;99.90
51839;DHT22;37886;53.174;6.368;2023-06-26T04:39:35;21.20;99.90
51839;DHT22;37886;53.174;6.368;2023-06-26T04:42:03;21.10;99.90
51839;DHT22;37886;53.174;6.368;2023-06-26T04:44:29;21.10;99.90
51839;DHT22;37886;53.174;6.368;2023-06-26T04:46:54;21.10;99.90
51839;DHT22;37886;53.174;6.368;2023-06-26T04:49:20;21.00;99.90
51839;DHT22;37886;53.174;6.368;2023-06-26T04:51:46;20.90;99.90
51839;DHT22;37886;53.174;6.368;2023-06-26T04:54:11;21.00;99.90
51839;DHT22;37886;53.174;6.368;2023-06-26T04:56:37;20.90;99.90
51839;DHT22;37886;53.174;6.368;2023-06-26T04:59:05;20.90;99.90
51839;DHT22;37886;53.174;6.368;2023-06-26T05:01:31;20.80;99.90
51839;DHT22;37886;53.174;6.368;2023-06-26T05:03:59;20.70;99.90
51839;DHT22;37886;53.174;6.368;2023-06-26T05:06:24;20.40;99.90
51839;DHT22;37886;53.174;6.368;2023-06-26T05:08:50;20.30;99.90
51839;DHT22;37886;53.174;6.368;2023-06-26T05:11:16;20.20;99.90
51839;DHT22;37886;53.174;6.368;2023-06-26T05:13:42;20.20;99.90
51839;DHT22;37886;53.174;6.368;2023-06-26T05:16:08;20.20;99.90
51839;DHT22;37886;53.174;6.368;2023-06-26T05:18:35;20.20;99.90
51839;DHT22;37886;53.174;6.368;2023-06-26T05:21:01;20.20;99.90
51839;DHT22;37886;53.174;6.368;2023-06-26T05:23:31;20.20;99.90
51839;DHT22;37886;53.174;6.368;2023-06-26T05:25:57;20.10;99.90
51839;DHT22;37886;53.174;6.368;2023-06-26T05:28:23;20.10;99.90
51839;DHT22;37886;53.174;6.368;2023-06-26T05:30:51;20.00;99.90
51839;DHT22;37886;53.174;6.368;2023-06-26T05:33:18;20.10;99.90
51839;DHT22;37886;53.174;6.368;2023-06-26T05:35:45;20.10;99.90
51839;DHT22;37886;53.174;6.368;2023-06-26T05:38:12;20.10;99.90
51839;DHT22;37886;53.174;6.368;2023-06-26T05:40:39;20.00;99.90
51839;DHT22;37886;53.174;6.368;2023-06-26T05:43:06;19.90;99.90
51839;DHT22;37886;53.174;6.368;2023-06-26T05:45:33;19.90;99.90
51839;DHT22;37886;53.174;6.368;2023-06-26T05:47:59;19.70;99.90
51839;DHT22;37886;53.174;6.368;2023-06-26T05:50:25;19.60;99.90
51839;DHT22;37886;53.174;6.368;2023-06-26T05:52:51;19.70;99.90
51839;DHT22;37886;53.174;6.368;2023-06-26T05:55:17;19.80;99.90
51839;DHT22;37886;53.174;6.368;2023-06-26T05:57:43;19.70;99.90
51839;DHT22;37886;53.174;6.368;2023-06-26T06:00:11;19.70;99.90
51839;DHT22;37886;53.174;6.368;2023-06-26T06:02:38;19.70;99.90
51839;DHT22;37886;53.174;6.368;2023-06-26T06:05:05;19.80;99.90
51839;DHT22;37886;53.174;6.368;2023-06-26T06:07:35;19.90;99.90
51839;DHT22;37886;53.174;6.368;2023-06-26T06:10:02;20.00;99.90
51839;DHT22;37886;53.174;6.368;2023-06-26T06:12:28;20.10;99.90
51839;DHT22;37886;53.174;6.368;2023-06-26T06:14:54;20.10;99.90
51839;DHT22;37886;53.174;6.368;2023-06-26T06:17:20;20.10;99.90
51839;DHT22;37886;53.174;6.368;2023-06-26T06:19:46;20.20;99.90
51839;DHT22;37886;53.174;6.368;2023-06-26T06:22:12;20.30;99.90
51839;DHT22;37886;53.174;6.368;2023-06-26T06:24:37;20.20;99.90
51839;DHT22;37886;53.174;6.368;2023-06-26T06:27:03;20.20;99.90
51839;DHT22;37886;53.174;6.368;2023-06-26T06:29:29;20.20;99.90
51839;DHT22;37886;53.174;6.368;2023-06-26T06:31:55;20.30;99.90
51839;DHT22;37886;53.174;6.368;2023-06-26T06:34:20;20.50;99.90
51839;DHT22;37886;53.174;6.368;2023-06-26T06:36:46;20.50;99.90
51839;DHT22;37886;53.174;6.368;2023-06-26T06:39:12;20.50;99.90
51839;DHT22;37886;53.174;6.368;2023-06-26T06:41:38;20.60;99.90
51839;DHT22;37886;53.174;6.368;2023-06-26T06:44:04;20.70;99.90
51839;DHT22;37886;53.174;6.368;2023-06-26T06:46:30;20.80;99.90
51839;DHT22;37886;53.174;6.368;2023-06-26T06:48:55;20.70;99.90
51839;DHT22;37886;53.174;6.368;2023-06-26T06:51:22;20.70;99.90
51839;DHT22;37886;53.174;6.368;2023-06-26T06:53:48;20.70;99.90
51839;DHT22;37886;53.174;6.368;2023-06-26T06:56:13;20.70;99.90
51839;DHT22;37886;53.174;6.368;2023-06-26T06:58:39;20.80;99.90
51839;DHT22;37886;53.174;6.368;2023-06-26T07:01:09;21.00;99.90
51839;DHT22;37886;53.174;6.368;2023-06-26T07:03:35;20.90;99.90
51839;DHT22;37886;53.174;6.368;2023-06-26T07:06:01;20.80;99.90
51839;DHT22;37886;53.174;6.368;2023-06-26T07:08:28;20.90;99.90
51839;DHT22;37886;53.174;6.368;2023-06-26T07:10:54;20.90;99.90
51839;DHT22;37886;53.174;6.368;2023-06-26T07:13:22;20.90;99.90
51839;DHT22;37886;53.174;6.368;2023-06-26T07:15:48;21.00;99.90
51839;DHT22;37886;53.174;6.368;2023-06-26T07:18:14;21.20;99.90
51839;DHT22;37886;53.174;6.368;2023-06-26T07:20:40;21.20;99.90
51839;DHT22;37886;53.174;6.368;2023-06-26T07:23:05;21.40;99.90
51839;DHT22;37886;53.174;6.368;2023-06-26T07:25:31;21.30;99.90
51839;DHT22;37886;53.174;6.368;2023-06-26T07:27:57;21.20;99.90
51839;DHT22;37886;53.174;6.368;2023-06-26T07:30:23;21.10;99.90
51839;DHT22;37886;53.174;6.368;2023-06-26T07:32:49;21.10;99.90
51839;DHT22;37886;53.174;6.368;2023-06-26T07:35:16;21.30;99.90
51839;DHT22;37886;53.174;6.368;2023-06-26T07:37:42;21.30;99.90
51839;DHT22;37886;53.174;6.368;2023-06-26T07:40:08;21.50;99.90
51839;DHT22;37886;53.174;6.368;2023-06-26T07:42:34;21.70;99.90
51839;DHT22;37886;53.174;6.368;2023-06-26T07:45:00;21.60;99.90
51839;DHT22;37886;53.174;6.368;2023-06-26T07:47:25;21.40;99.90
51839;DHT22;37886;53.174;6.368;2023-06-26T07:49:51;21.60;99.90
51839;DHT22;37886;53.174;6.368;2023-06-26T07:52:19;21.80;99.90
51839;DHT22;37886;53.174;6.368;2023-06-26T07:54:44;21.90;99.90
51839;DHT22;37886;53.174;6.368;2023-06-26T07:57:11;21.70;99.90
51839;DHT22;37886;53.174;6.368;2023-06-26T07:59:38;21.80;99.90
51839;DHT22;37886;53.174;6.368;2023-06-26T08:02:04;21.80;99.90
51839;DHT22;37886;53.174;6.368;2023-06-26T08:04:30;21.80;99.90
51839;DHT22;37886;53.174;6.368;2023-06-26T08:06:58;22.10;99.90
51839;DHT22;37886;53.174;6.368;2023-06-26T08:09:26;21.90;99.90
51839;DHT22;37886;53.174;6.368;2023-06-26T08:11:53;21.70;99.90
51839;DHT22;37886;53.174;6.368;2023-06-26T08:14:19;21.40;99.90
51839;DHT22;37886;53.174;6.368;2023-06-26T08:16:45;21.50;99.90
51839;DHT22;37886;53.174;6.368;2023-06-26T08:19:13;22.10;99.90
51839;DHT22;37886;53.174;6.368;2023-06-26T08:21:40;22.20;99.90
51839;DHT22;37886;53.174;6.368;2023-06-26T08:24:06;22.50;99.90
51839;DHT22;37886;53.174;6.368;2023-06-26T08:26:32;22.20;99.90
51839;DHT22;37886;53.174;6.368;2023-06-26T08:28:57;22.10;99.90
51839;DHT22;37886;53.174;6.368;2023-06-26T08:31:23;22.30;99.90
51839;DHT22;37886;53.174;6.368;2023-06-26T08:33:49;22.70;99.90
51839;DHT22;37886;53.174;6.368;2023-06-26T08:36:15;22.80;99.90
51839;DHT22;37886;53.174;6.368;2023-06-26T08:38:41;22.30;99.90
51839;DHT22;37886;53.174;6.368;2023-06-26T08:41:07;22.60;99.90
51839;DHT22;37886;53.174;6.368;2023-06-26T08:43:33;22.60;99.90
51839;DHT22;37886;53.174;6.368;2023-06-26T08:46:00;23.10;99.90
51839;DHT22;37886;53.174;6.368;2023-06-26T08:48:26;23.30;99.90
51839;DHT22;37886;53.174;6.368;2023-06-26T08:50:55;23.20;99.90
51839;DHT22;37886;53.174;6.368;2023-06-26T08:53:33;23.10;99.90
51839;DHT22;37886;53.174;6.368;2023-06-26T08:56:02;23.10;99.90
51839;DHT22;37886;53.174;6.368;2023-06-26T08:58:28;22.70;99.90
51839;DHT22;37886;53.174;6.368;2023-06-26T09:00:53;22.40;99.90
51839;DHT22;37886;53.174;6.368;2023-06-26T09:03:21;22.60;99.90
51839;DHT22;37886;53.174;6.368;2023-06-26T09:05:48;22.60;99.90
51839;DHT22;37886;53.174;6.368;2023-06-26T09:08:14;22.80;99.90
51839;DHT22;37886;53.174;6.368;2023-06-26T09:10:40;22.70;99.90
51839;DHT22;37886;53.174;6.368;2023-06-26T09:13:05;22.90;99.90
51839;DHT22;37886;53.174;6.368;2023-06-26T09:15:44;22.20;99.90
51839;DHT22;37886;53.174;6.368;2023-06-26T09:18:11;21.80;99.90
51839;DHT22;37886;53.174;6.368;2023-06-26T09:20:37;21.80;99.90
51839;DHT22;37886;53.174;6.368;2023-06-26T09:23:03;22.10;99.90
51839;DHT22;37886;53.174;6.368;2023-06-26T09:25:29;22.10;99.90
51839;DHT22;37886;53.174;6.368;2023-06-26T09:27:56;22.10;99.90
51839;DHT22;37886;53.174;6.368;2023-06-26T09:30:22;21.60;99.90
51839;DHT22;37886;53.174;6.368;2023-06-26T09:32:48;21.50;99.90
51839;DHT22;37886;53.174;6.368;2023-06-26T09:35:16;21.70;99.90
51839;DHT22;37886;53.174;6.368;2023-06-26T09:37:42;21.60;99.90
51839;DHT22;37886;53.174;6.368;2023-06-26T09:40:09;21.90;99.90
51839;DHT22;37886;53.174;6.368;2023-06-26T09:42:35;22.20;99.90
51839;DHT22;37886;53.174;6.368;2023-06-26T09:45:02;22.70;99.90
51839;DHT22;37886;53.174;6.368;2023-06-26T09:47:30;23.10;99.90
51839;DHT22;37886;53.174;6.368;2023-06-26T09:49:57;22.20;99.90
51839;DHT22;37886;53.174;6.368;2023-06-26T09:52:26;22.10;99.90
51839;DHT22;37886;53.174;6.368;2023-06-26T09:55:10;21.90;99.90
51839;DHT22;37886;53.174;6.368;2023-06-26T09:57:35;22.10;99.90
51839;DHT22;37886;53.174;6.368;2023-06-26T10:00:05;22.70;99.90
51839;DHT22;37886;53.174;6.368;2023-06-26T10:02:33;22.70;99.90
51839;DHT22;37886;53.174;6.368;2023-06-26T10:04:59;22.90;99.90
51839;DHT22;37886;53.174;6.368;2023-06-26T10:07:25;22.30;99.90
51839;DHT22;37886;53.174;6.368;2023-06-26T10:09:54;22.30;99.90
51839;DHT22;37886;53.174;6.368;2023-06-26T10:12:29;22.70;99.90
51839;DHT22;37886;53.174;6.368;2023-06-26T10:14:57;23.20;99.90
51839;DHT22;37886;53.174;6.368;2023-06-26T10:17:34;23.40;99.90
51839;DHT22;37886;53.174;6.368;2023-06-26T10:20:02;24.10;99.90
51839;DHT22;37886;53.174;6.368;2023-06-26T10:22:31;23.60;99.90
51839;DHT22;37886;53.174;6.368;2023-06-26T10:24:59;22.90;99.90
51839;DHT22;37886;53.174;6.368;2023-06-26T10:27:29;22.60;99.90
51839;DHT22;37886;53.174;6.368;2023-06-26T10:30:02;22.40;99.90
51839;DHT22;37886;53.174;6.368;2023-06-26T10:32:28;22.00;99.90
51839;DHT22;37886;53.174;6.368;2023-06-26T10:34:55;22.80;99.90
51839;DHT22;37886;53.174;6.368;2023-06-26T10:37:43;23.40;99.90
51839;DHT22;37886;53.174;6.368;2023-06-26T10:40:10;24.00;99.90
51839;DHT22;37886;53.174;6.368;2023-06-26T10:42:38;24.10;99.90
51839;DHT22;37886;53.174;6.368;2023-06-26T10:45:15;23.80;99.90
51839;DHT22;37886;53.174;6.368;2023-06-26T10:47:42;24.50;99.90
51839;DHT22;37886;53.174;6.368;2023-06-26T10:50:30;24.00;99.90
51839;DHT22;37886;53.174;6.368;2023-06-26T11:01:18;23.60;99.90
51839;DHT22;37886;53.174;6.368;2023-06-26T11:03:48;24.20;99.90
51839;DHT22;37886;53.174;6.368;2023-06-26T11:06:19;24.60;99.90
51839;DHT22;37886;53.174;6.368;2023-06-26T11:11:12;25.60;99.80
51839;DHT22;37886;53.174;6.368;2023-06-26T11:13:42;25.90;99.80
51839;DHT22;37886;53.174;6.368;2023-06-26T11:16:11;25.50;98.50
51839;DHT22;37886;53.174;6.368;2023-06-26T11:18:38;25.90;98.60
51839;DHT22;37886;53.174;6.368;2023-06-26T11:21:08;25.20;98.90
51839;DHT22;37886;53.174;6.368;2023-06-26T11:23:35;24.10;99.80
51839;DHT22;37886;53.174;6.368;2023-06-26T11:26:18;24.80;99.70
51839;DHT22;37886;53.174;6.368;2023-06-26T11:28:51;26.00;99.30
51839;DHT22;37886;53.174;6.368;2023-06-26T11:31:31;25.90;98.00
51839;DHT22;37886;53.174;6.368;2023-06-26T11:34:05;26.50;98.00
51839;DHT22;37886;53.174;6.368;2023-06-26T11:36:31;25.50;97.40
51839;DHT22;37886;53.174;6.368;2023-06-26T11:39:01;24.80;97.50
51839;DHT22;37886;53.174;6.368;2023-06-26T11:41:30;25.30;96.40
51839;DHT22;37886;53.174;6.368;2023-06-26T11:44:07;25.20;95.80
51839;DHT22;37886;53.174;6.368;2023-06-26T11:46:35;25.50;96.60
51839;DHT22;37886;53.174;6.368;2023-06-26T11:49:07;25.60;96.70
51839;DHT22;37886;53.174;6.368;2023-06-26T11:51:34;25.00;96.80
51839;DHT22;37886;53.174;6.368;2023-06-26T11:54:02;24.50;97.30
51839;DHT22;37886;53.174;6.368;2023-06-26T11:56:28;24.50;97.50
51839;DHT22;37886;53.174;6.368;2023-06-26T11:59:05;25.20;97.20
51839;DHT22;37886;53.174;6.368;2023-06-26T12:01:36;24.90;96.00
51839;DHT22;37886;53.174;6.368;2023-06-26T12:04:04;23.90;96.50
51839;DHT22;37886;53.174;6.368;2023-06-26T12:06:32;24.00;97.60
51839;DHT22;37886;53.174;6.368;2023-06-26T12:09:00;24.60;97.50
51839;DHT22;37886;53.174;6.368;2023-06-26T12:11:28;24.40;97.40
51839;DHT22;37886;53.174;6.368;2023-06-26T12:13:55;24.50;97.30
51839;DHT22;37886;53.174;6.368;2023-06-26T12:16:21;24.30;97.90
51839;DHT22;37886;53.174;6.368;2023-06-26T12:18:47;23.90;98.60
51839;DHT22;37886;53.174;6.368;2023-06-26T12:24:07;23.60;97.80
51839;DHT22;37886;53.174;6.368;2023-06-26T12:26:33;23.40;97.60
51839;DHT22;37886;53.174;6.368;2023-06-26T12:29:05;23.90;97.70
51839;DHT22;37886;53.174;6.368;2023-06-26T12:31:32;24.10;98.20
51839;DHT22;37886;53.174;6.368;2023-06-26T12:33:58;24.70;97.80
51839;DHT22;37886;53.174;6.368;2023-06-26T12:36:24;25.10;96.40
51839;DHT22;37886;53.174;6.368;2023-06-26T12:38:52;25.10;96.60
51839;DHT22;37886;53.174;6.368;2023-06-26T12:41:17;25.40;95.90
51839;DHT22;37886;53.174;6.368;2023-06-26T12:43:46;25.00;95.70
51839;DHT22;37886;53.174;6.368;2023-06-26T12:46:12;24.60;96.50
51839;DHT22;37886;53.174;6.368;2023-06-26T12:48:42;24.00;97.30
51839;DHT22;37886;53.174;6.368;2023-06-26T12:51:16;24.50;97.70
51839;DHT22;37886;53.174;6.368;2023-06-26T12:53:42;24.90;96.20
51839;DHT22;37886;53.174;6.368;2023-06-26T12:56:09;25.10;97.10
51839;DHT22;37886;53.174;6.368;2023-06-26T12:58:36;24.70;97.00
51839;DHT22;37886;53.174;6.368;2023-06-26T13:01:07;24.00;97.90
51839;DHT22;37886;53.174;6.368;2023-06-26T13:03:43;24.10;97.40
51839;DHT22;37886;53.174;6.368;2023-06-26T13:06:09;24.10;97.10
51839;DHT22;37886;53.174;6.368;2023-06-26T13:08:34;24.00;97.10
51839;DHT22;37886;53.174;6.368;2023-06-26T13:11:00;24.10;97.00
51839;DHT22;37886;53.174;6.368;2023-06-26T13:13:26;23.80;97.50
51839;DHT22;37886;53.174;6.368;2023-06-26T13:15:52;24.00;98.00
51839;DHT22;37886;53.174;6.368;2023-06-26T13:18:18;23.80;98.50
51839;DHT22;37886;53.174;6.368;2023-06-26T13:20:44;23.90;98.20
51839;DHT22;37886;53.174;6.368;2023-06-26T13:23:09;23.70;98.70
51839;DHT22;37886;53.174;6.368;2023-06-26T13:25:35;23.70;98.60
51839;DHT22;37886;53.174;6.368;2023-06-26T13:28:01;24.20;98.60
51839;DHT22;37886;53.174;6.368;2023-06-26T13:30:26;24.80;98.00
51839;DHT22;37886;53.174;6.368;2023-06-26T13:32:52;24.60;98.00
51839;DHT22;37886;53.174;6.368;2023-06-26T13:35:18;24.70;96.60
51839;DHT22;37886;53.174;6.368;2023-06-26T13:37:43;24.80;96.70
51839;DHT22;37886;53.174;6.368;2023-06-26T13:40:09;24.10;97.40
51839;DHT22;37886;53.174;6.368;2023-06-26T13:42:36;24.30;97.30
51839;DHT22;37886;53.174;6.368;2023-06-26T13:45:02;24.20;96.70
51839;DHT22;37886;53.174;6.368;2023-06-26T13:47:28;24.50;96.50
51839;DHT22;37886;53.174;6.368;2023-06-26T13:49:54;24.80;96.80
51839;DHT22;37886;53.174;6.368;2023-06-26T13:52:20;25.20;96.80
51839;DHT22;37886;53.174;6.368;2023-06-26T13:54:46;25.20;96.00
51839;DHT22;37886;53.174;6.368;2023-06-26T13:57:12;24.10;95.90
51839;DHT22;37886;53.174;6.368;2023-06-26T13:59:38;24.00;96.90
51839;DHT22;37886;53.174;6.368;2023-06-26T14:02:07;23.70;97.30
51839;DHT22;37886;53.174;6.368;2023-06-26T14:04:33;23.30;96.80
51839;DHT22;37886;53.174;6.368;2023-06-26T14:06:59;23.00;97.70
51839;DHT22;37886;53.174;6.368;2023-06-26T14:09:25;23.30;98.10
51839;DHT22;37886;53.174;6.368;2023-06-26T14:11:50;23.90;97.40
51839;DHT22;37886;53.174;6.368;2023-06-26T14:14:16;24.10;97.00
51839;DHT22;37886;53.174;6.368;2023-06-26T14:16:42;24.00;97.30
51839;DHT22;37886;53.174;6.368;2023-06-26T14:19:08;24.80;96.70
51839;DHT22;37886;53.174;6.368;2023-06-26T14:21:40;24.00;97.10
51839;DHT22;37886;53.174;6.368;2023-06-26T14:24:06;24.30;97.10
51839;DHT22;37886;53.174;6.368;2023-06-26T14:26:32;24.90;95.30
51839;DHT22;37886;53.174;6.368;2023-06-26T14:28:59;24.60;95.00
51839;DHT22;37886;53.174;6.368;2023-06-26T14:31:26;24.10;95.40
51839;DHT22;37886;53.174;6.368;2023-06-26T14:33:51;24.40;94.80
51839;DHT22;37886;53.174;6.368;2023-06-26T14:36:17;24.70;95.00
51839;DHT22;37886;53.174;6.368;2023-06-26T14:38:45;24.50;95.50
51839;DHT22;37886;53.174;6.368;2023-06-26T14:41:11;24.40;95.70
51839;DHT22;37886;53.174;6.368;2023-06-26T14:43:37;23.70;96.90
51839;DHT22;37886;53.174;6.368;2023-06-26T14:46:03;23.30;97.60
51839;DHT22;37886;53.174;6.368;2023-06-26T14:48:29;23.60;97.90
51839;DHT22;37886;53.174;6.368;2023-06-26T14:50:55;23.50;97.90
51839;DHT22;37886;53.174;6.368;2023-06-26T14:53:20;24.00;96.30
51839;DHT22;37886;53.174;6.368;2023-06-26T14:55:46;24.70;96.10
51839;DHT22;37886;53.174;6.368;2023-06-26T14:58:12;24.90;95.60
51839;DHT22;37886;53.174;6.368;2023-06-26T15:00:37;24.50;95.70
51839;DHT22;37886;53.174;6.368;2023-06-26T15:03:04;23.70;96.80
51839;DHT22;37886;53.174;6.368;2023-06-26T15:05:30;22.90;97.80
51839;DHT22;37886;53.174;6.368;2023-06-26T15:07:56;23.00;97.50
51839;DHT22;37886;53.174;6.368;2023-06-26T15:10:22;23.50;96.90
51839;DHT22;37886;53.174;6.368;2023-06-26T15:12:47;23.90;96.40
51839;DHT22;37886;53.174;6.368;2023-06-26T15:15:13;23.80;96.00
51839;DHT22;37886;53.174;6.368;2023-06-26T15:17:39;24.00;95.70
51839;DHT22;37886;53.174;6.368;2023-06-26T15:20:05;23.30;96.30
51839;DHT22;37886;53.174;6.368;2023-06-26T15:22:31;22.80;96.30
51839;DHT22;37886;53.174;6.368;2023-06-26T15:24:57;22.40;96.40
51839;DHT22;37886;53.174;6.368;2023-06-26T15:27:23;22.60;96.60
51839;DHT22;37886;53.174;6.368;2023-06-26T15:29:48;22.60;96.70
51839;DHT22;37886;53.174;6.368;2023-06-26T15:32:14;23.40;96.10
51839;DHT22;37886;53.174;6.368;2023-06-26T15:34:41;24.10;95.60
51839;DHT22;37886;53.174;6.368;2023-06-26T15:37:07;23.70;95.70
51839;DHT22;37886;53.174;6.368;2023-06-26T15:39:32;23.90;95.20
51839;DHT22;37886;53.174;6.368;2023-06-26T15:41:58;24.20;94.70
51839;DHT22;37886;53.174;6.368;2023-06-26T15:44:24;24.00;92.50
51839;DHT22;37886;53.174;6.368;2023-06-26T15:46:50;24.40;92.90
51839;DHT22;37886;53.174;6.368;2023-06-26T15:49:16;24.10;93.40